Gary Chicago International Airport
KGYY : now visible

Airfield :











YOU CAN JOIN US ON...

 
LOGIN :

Register | Disclaimer

   EN    FR    IT 

 









Legend :    VFR   Marginal VFR   IFR   Intensive IFR   Very Intensive IFR
Visi :
Ceiling :
>= 8 km
>= 3000ft
5 to 8 km
1000 to 3000 ft
1500m to 5 km
500 to 1000 ft
800 to 1500m
200 to 500 ft
< 800m
< 200 ft
Symbols :   Thunderstorms  Fog  Heavy snow  Heavy precipitations  Wind > 20 kt






- Airport Elevation : 591 ft
- IATA code : GYY


KGYY - Gary Chicago International

CURRENT METAR :
  • 151445Z 25007KT 10SM OVC019 M05/M10 A3013

EXPIRED METARs :
  • 151345Z 25006KT 10SM BKN021 M05/M10 A3009
  • 151245Z 26008KT 10SM OVC021 M05/M10 A3008

TAF KGYY
Valid from the 15 at 15:00 until the 16 at 12:00 UTC


151514Z 1515/1612 28007KT P6SM BKN020
FM151800 28005KT P6SM SCT150 BKN250
FM152200 VRB03KT P6SM OVC100
FM160200 VRB03KT 5SM -SN BKN020 OVC035
PROB30 1604/1609 2SM -SN BKN015



MET'MAP, your aeronautical weather chart ! - Copyright ORBIFLY December 2007 - Disclaimer

ORBIFLY MET'MAP TEAM :

Programming & Development : Alexandra Zaïnal
Concept & original design : Baudouin d'Aumeries
Assistance for programming : Marc-Olivier Méhu
Technical & hardware support : Manuel Goepfert

Contact : metmap@orbifly.com




SOURCES & CREDITS :

   NOAA       Earth
Advisory